sensor_id;sensor_type;location;lat;lon;timestamp;pressure;altitude;pressure_sealevel;temperature;humidity
28428;BME280;15662;49.128;8.520;2023-09-07T00:00:22;100705.63;;;23.80;46.46
28428;BME280;15662;49.128;8.520;2023-09-07T00:02:50;100702.03;;;23.80;46.70
28428;BME280;15662;49.128;8.520;2023-09-07T00:05:18;100705.72;;;23.79;46.62
28428;BME280;15662;49.128;8.520;2023-09-07T00:07:46;100708.75;;;23.74;46.60
28428;BME280;15662;49.128;8.520;2023-09-07T00:10:14;100704.34;;;23.73;46.71
28428;BME280;15662;49.128;8.520;2023-09-07T00:12:43;100706.53;;;23.68;46.73
28428;BME280;15662;49.128;8.520;2023-09-07T00:15:10;100701.53;;;23.62;46.62
28428;BME280;15662;49.128;8.520;2023-09-07T00:17:38;100707.31;;;23.57;46.95
28428;BME280;15662;49.128;8.520;2023-09-07T00:20:07;100703.22;;;23.52;46.94
28428;BME280;15662;49.128;8.520;2023-09-07T00:22:38;100699.13;;;23.46;46.78
28428;BME280;15662;49.128;8.520;2023-09-07T00:25:07;100699.59;;;23.40;47.07
28428;BME280;15662;49.128;8.520;2023-09-07T00:27:35;100697.31;;;23.34;47.14
28428;BME280;15662;49.128;8.520;2023-09-07T00:30:04;100680.56;;;23.29;47.26
28428;BME280;15662;49.128;8.520;2023-09-07T00:32:33;100699.41;;;23.30;47.14
28428;BME280;15662;49.128;8.520;2023-09-07T00:35:02;100702.31;;;23.27;47.31
28428;BME280;15662;49.128;8.520;2023-09-07T00:37:30;100690.13;;;23.22;47.19
28428;BME280;15662;49.128;8.520;2023-09-07T00:39:57;100695.28;;;23.25;47.25
28428;BME280;15662;49.128;8.520;2023-09-07T00:42:25;100689.13;;;23.23;47.32
28428;BME280;15662;49.128;8.520;2023-09-07T00:44:54;100693.69;;;23.22;47.58
28428;BME280;15662;49.128;8.520;2023-09-07T00:47:22;100692.81;;;23.22;47.46
28428;BME280;15662;49.128;8.520;2023-09-07T00:49:50;100687.63;;;23.18;47.58
28428;BME280;15662;49.128;8.520;2023-09-07T00:52:19;100687.75;;;23.17;47.88
28428;BME280;15662;49.128;8.520;2023-09-07T00:54:48;100683.53;;;23.13;47.69
28428;BME280;15662;49.128;8.520;2023-09-07T00:57:16;100695.34;;;23.12;47.83
28428;BME280;15662;49.128;8.520;2023-09-07T00:59:44;100691.88;;;23.10;47.83
28428;BME280;15662;49.128;8.520;2023-09-07T01:02:12;100694.69;;;23.08;47.95
28428;BME280;15662;49.128;8.520;2023-09-07T01:04:40;100692.00;;;23.08;48.09
28428;BME280;15662;49.128;8.520;2023-09-07T01:07:18;100682.38;;;23.04;48.11
28428;BME280;15662;49.128;8.520;2023-09-07T01:09:55;100680.84;;;23.00;47.83
28428;BME280;15662;49.128;8.520;2023-09-07T01:12:23;100683.56;;;23.00;47.96
28428;BME280;15662;49.128;8.520;2023-09-07T01:14:51;100684.47;;;23.01;47.87
28428;BME280;15662;49.128;8.520;2023-09-07T01:17:21;100679.91;;;23.01;47.84
28428;BME280;15662;49.128;8.520;2023-09-07T01:19:50;100674.72;;;22.98;47.79
28428;BME280;15662;49.128;8.520;2023-09-07T01:22:20;100672.13;;;22.97;47.80
28428;BME280;15662;49.128;8.520;2023-09-07T01:24:52;100674.59;;;23.00;47.83
28428;BME280;15662;49.128;8.520;2023-09-07T01:27:20;100667.59;;;22.97;47.79
28428;BME280;15662;49.128;8.520;2023-09-07T01:29:48;100680.84;;;23.00;47.72
28428;BME280;15662;49.128;8.520;2023-09-07T01:32:16;100682.69;;;23.00;47.63
28428;BME280;15662;49.128;8.520;2023-09-07T01:34:44;100690.81;;;23.00;47.72
28428;BME280;15662;49.128;8.520;2023-09-07T01:37:12;100687.50;;;22.96;47.65
28428;BME280;15662;49.128;8.520;2023-09-07T01:39:39;100690.06;;;22.98;47.65
28428;BME280;15662;49.128;8.520;2023-09-07T01:42:08;100680.25;;;22.97;47.57
28428;BME280;15662;49.128;8.520;2023-09-07T01:44:36;100693.75;;;22.97;47.59
28428;BME280;15662;49.128;8.520;2023-09-07T01:47:04;100685.72;;;22.95;47.89
28428;BME280;15662;49.128;8.520;2023-09-07T01:49:32;100698.63;;;22.91;47.75
28428;BME280;15662;49.128;8.520;2023-09-07T01:52:00;100694.28;;;22.89;47.62
28428;BME280;15662;49.128;8.520;2023-09-07T01:54:28;100689.84;;;22.88;47.80
28428;BME280;15662;49.128;8.520;2023-09-07T01:56:55;100695.38;;;22.86;47.83
28428;BME280;15662;49.128;8.520;2023-09-07T01:59:24;100690.03;;;22.85;47.82
28428;BME280;15662;49.128;8.520;2023-09-07T02:01:52;100691.16;;;22.82;47.85
28428;BME280;15662;49.128;8.520;2023-09-07T02:04:20;100677.84;;;22.79;47.78
28428;BME280;15662;49.128;8.520;2023-09-07T02:06:48;100677.97;;;22.78;47.81
28428;BME280;15662;49.128;8.520;2023-09-07T02:09:16;100677.09;;;22.77;47.81
28428;BME280;15662;49.128;8.520;2023-09-07T02:11:43;100683.25;;;22.79;47.68
28428;BME280;15662;49.128;8.520;2023-09-07T02:14:11;100678.50;;;22.83;47.70
28428;BME280;15662;49.128;8.520;2023-09-07T02:16:40;100679.56;;;22.80;47.87
28428;BME280;15662;49.128;8.520;2023-09-07T02:19:08;100681.19;;;22.83;47.72
28428;BME280;15662;49.128;8.520;2023-09-07T02:21:36;100680.34;;;22.82;47.71
28428;BME280;15662;49.128;8.520;2023-09-07T02:24:04;100678.38;;;22.84;47.67
28428;BME280;15662;49.128;8.520;2023-09-07T02:26:32;100674.06;;;22.82;47.71
28428;BME280;15662;49.128;8.520;2023-09-07T02:29:01;100681.06;;;22.84;47.86
28428;BME280;15662;49.128;8.520;2023-09-07T02:31:33;100684.03;;;22.81;47.79
28428;BME280;15662;49.128;8.520;2023-09-07T02:34:01;100690.38;;;22.80;47.85
28428;BME280;15662;49.128;8.520;2023-09-07T02:36:29;100685.75;;;22.82;47.74
28428;BME280;15662;49.128;8.520;2023-09-07T02:38:57;100690.16;;;22.83;47.77
28428;BME280;15662;49.128;8.520;2023-09-07T02:41:25;100685.63;;;22.84;47.73
28428;BME280;15662;49.128;8.520;2023-09-07T02:43:53;100689.19;;;22.84;47.68
28428;BME280;15662;49.128;8.520;2023-09-07T02:46:21;100687.47;;;22.83;47.70
28428;BME280;15662;49.128;8.520;2023-09-07T02:48:49;100682.06;;;22.83;47.67
28428;BME280;15662;49.128;8.520;2023-09-07T02:51:16;100684.75;;;22.83;47.64
28428;BME280;15662;49.128;8.520;2023-09-07T02:53:45;100682.19;;;22.82;47.84
28428;BME280;15662;49.128;8.520;2023-09-07T02:56:13;100684.09;;;22.80;47.92
28428;BME280;15662;49.128;8.520;2023-09-07T02:58:41;100680.53;;;22.79;47.88
28428;BME280;15662;49.128;8.520;2023-09-07T03:01:09;100676.31;;;22.75;47.70
28428;BME280;15662;49.128;8.520;2023-09-07T03:03:37;100663.78;;;22.74;47.79
28428;BME280;15662;49.128;8.520;2023-09-07T03:06:14;100664.34;;;22.79;47.61
28428;BME280;15662;49.128;8.520;2023-09-07T03:08:44;100663.16;;;22.71;47.81
28428;BME280;15662;49.128;8.520;2023-09-07T03:11:12;100665.63;;;22.74;47.89
28428;BME280;15662;49.128;8.520;2023-09-07T03:13:40;100666.50;;;22.74;47.74
28428;BME280;15662;49.128;8.520;2023-09-07T03:16:10;100671.78;;;22.76;47.80
28428;BME280;15662;49.128;8.520;2023-09-07T03:18:38;100676.44;;;22.74;47.77
28428;BME280;15662;49.128;8.520;2023-09-07T03:21:06;100673.75;;;22.74;47.78
28428;BME280;15662;49.128;8.520;2023-09-07T03:23:34;100661.44;;;22.70;47.78
28428;BME280;15662;49.128;8.520;2023-09-07T03:26:03;100667.47;;;22.73;47.88
28428;BME280;15662;49.128;8.520;2023-09-07T03:28:31;100674.06;;;22.69;47.81
28428;BME280;15662;49.128;8.520;2023-09-07T03:30:59;100673.22;;;22.69;47.93
28428;BME280;15662;49.128;8.520;2023-09-07T03:33:27;100676.03;;;22.67;47.82
28428;BME280;15662;49.128;8.520;2023-09-07T03:35:55;100672.78;;;22.62;47.88
28428;BME280;15662;49.128;8.520;2023-09-07T03:38:26;100668.56;;;22.58;48.02
28428;BME280;15662;49.128;8.520;2023-09-07T03:40:54;100684.13;;;22.54;47.96
28428;BME280;15662;49.128;8.520;2023-09-07T03:43:22;100685.56;;;22.47;48.09
28428;BME280;15662;49.128;8.520;2023-09-07T03:45:50;100681.66;;;22.38;48.03
28428;BME280;15662;49.128;8.520;2023-09-07T03:48:18;100684.13;;;22.29;48.19
28428;BME280;15662;49.128;8.520;2023-09-07T03:50:47;100681.53;;;22.27;48.25
28428;BME280;15662;49.128;8.520;2023-09-07T03:53:15;100679.78;;;22.26;48.25
28428;BME280;15662;49.128;8.520;2023-09-07T03:55:45;100677.97;;;22.27;48.29
28428;BME280;15662;49.128;8.520;2023-09-07T03:58:15;100677.22;;;22.25;48.33
28428;BME280;15662;49.128;8.520;2023-09-07T04:00:44;100690.50;;;22.28;48.37
28428;BME280;15662;49.128;8.520;2023-09-07T04:03:12;100685.09;;;22.28;48.43
28428;BME280;15662;49.128;8.520;2023-09-07T04:05:40;100680.88;;;22.24;48.59
28428;BME280;15662;49.128;8.520;2023-09-07T04:08:08;100678.94;;;22.26;48.59
28428;BME280;15662;49.128;8.520;2023-09-07T04:10:37;100681.53;;;22.27;48.59
28428;BME280;15662;49.128;8.520;2023-09-07T04:13:06;100676.34;;;22.24;48.56
28428;BME280;15662;49.128;8.520;2023-09-07T04:15:42;100676.03;;;22.29;48.53
28428;BME280;15662;49.128;8.520;2023-09-07T04:18:12;100683.38;;;22.27;48.53
28428;BME280;15662;49.128;8.520;2023-09-07T04:20:43;100681.63;;;22.26;48.58
28428;BME280;15662;49.128;8.520;2023-09-07T04:23:13;100669.22;;;22.23;48.65
28428;BME280;15662;49.128;8.520;2023-09-07T04:25:40;100677.09;;;22.26;48.52
28428;BME280;15662;49.128;8.520;2023-09-07T04:28:09;100673.84;;;22.21;48.54
28428;BME280;15662;49.128;8.520;2023-09-07T04:30:41;100679.03;;;22.24;48.53
28428;BME280;15662;49.128;8.520;2023-09-07T04:33:09;100676.78;;;22.18;48.72
28428;BME280;15662;49.128;8.520;2023-09-07T04:35:38;100682.06;;;22.20;48.72
28428;BME280;15662;49.128;8.520;2023-09-07T04:38:07;100683.03;;;22.19;48.78
28428;BME280;15662;49.128;8.520;2023-09-07T04:40:35;100681.31;;;22.18;48.69
28428;BME280;15662;49.128;8.520;2023-09-07T04:43:03;100687.78;;;22.15;48.76
28428;BME280;15662;49.128;8.520;2023-09-07T04:45:31;100684.50;;;22.10;48.80
28428;BME280;15662;49.128;8.520;2023-09-07T04:47:59;100678.34;;;22.08;48.80
28428;BME280;15662;49.128;8.520;2023-09-07T04:50:27;100683.75;;;22.08;48.91
28428;BME280;15662;49.128;8.520;2023-09-07T04:52:55;100688.28;;;22.07;49.04
28428;BME280;15662;49.128;8.520;2023-09-07T04:55:23;100678.66;;;22.03;48.91
28428;BME280;15662;49.128;8.520;2023-09-07T04:57:51;100685.78;;;22.04;49.02
28428;BME280;15662;49.128;8.520;2023-09-07T05:00:18;100681.44;;;22.02;48.89
28428;BME280;15662;49.128;8.520;2023-09-07T05:02:48;100692.16;;;22.03;49.16
28428;BME280;15662;49.128;8.520;2023-09-07T05:05:16;100695.06;;;22.00;49.19
28428;BME280;15662;49.128;8.520;2023-09-07T05:07:44;100698.00;;;21.97;49.26
28428;BME280;15662;49.128;8.520;2023-09-07T05:10:11;100694.41;;;21.97;49.19
28428;BME280;15662;49.128;8.520;2023-09-07T05:12:40;100695.38;;;21.96;49.21
28428;BME280;15662;49.128;8.520;2023-09-07T05:15:09;100692.69;;;21.96;49.22
28428;BME280;15662;49.128;8.520;2023-09-07T05:17:37;100700.88;;;21.94;49.39
28428;BME280;15662;49.128;8.520;2023-09-07T05:20:07;100698.19;;;21.94;49.34
28428;BME280;15662;49.128;8.520;2023-09-07T05:22:37;100694.94;;;21.89;49.44
28428;BME280;15662;49.128;8.520;2023-09-07T05:25:07;100697.53;;;21.90;49.48
28428;BME280;15662;49.128;8.520;2023-09-07T05:27:37;100704.56;;;21.93;49.37
28428;BME280;15662;49.128;8.520;2023-09-07T05:30:05;100705.41;;;21.94;49.41
28428;BME280;15662;49.128;8.520;2023-09-07T05:32:34;100705.41;;;21.94;49.49
28428;BME280;15662;49.128;8.520;2023-09-07T05:35:02;100707.34;;;21.92;49.44
28428;BME280;15662;49.128;8.520;2023-09-07T05:37:30;100711.78;;;21.93;49.65
28428;BME280;15662;49.128;8.520;2023-09-07T05:39:58;100711.13;;;21.89;49.62
28428;BME280;15662;49.128;8.520;2023-09-07T05:42:26;100718.38;;;21.88;49.53
28428;BME280;15662;49.128;8.520;2023-09-07T05:44:54;100714.81;;;21.88;49.68
28428;BME280;15662;49.128;8.520;2023-09-07T05:47:23;100707.75;;;21.85;49.64
28428;BME280;15662;49.128;8.520;2023-09-07T05:49:54;100718.56;;;21.85;49.69
28428;BME280;15662;49.128;8.520;2023-09-07T05:52:22;100714.56;;;21.91;49.85
28428;BME280;15662;49.128;8.520;2023-09-07T05:54:49;100718.06;;;21.93;49.80
28428;BME280;15662;49.128;8.520;2023-09-07T05:57:18;100725.28;;;21.93;49.71
28428;BME280;15662;49.128;8.520;2023-09-07T05:59:45;100725.19;;;21.94;49.73
28428;BME280;15662;49.128;8.520;2023-09-07T06:02:13;100719.59;;;21.97;49.88
28428;BME280;15662;49.128;8.520;2023-09-07T06:04:41;100722.06;;;22.00;49.89
28428;BME280;15662;49.128;8.520;2023-09-07T06:07:10;100729.09;;;22.03;49.87
28428;BME280;15662;49.128;8.520;2023-09-07T06:09:38;100727.13;;;22.05;49.92
28428;BME280;15662;49.128;8.520;2023-09-07T06:12:06;100729.66;;;22.08;49.92
28428;BME280;15662;49.128;8.520;2023-09-07T06:14:34;100728.66;;;22.09;49.99
28428;BME280;15662;49.128;8.520;2023-09-07T06:17:02;100722.22;;;22.11;50.03
28428;BME280;15662;49.128;8.520;2023-09-07T06:19:31;100730.84;;;22.17;50.18
28428;BME280;15662;49.128;8.520;2023-09-07T06:21:59;100731.53;;;22.20;50.15
28428;BME280;15662;49.128;8.520;2023-09-07T06:24:27;100734.88;;;22.24;50.12
28428;BME280;15662;49.128;8.520;2023-09-07T06:26:56;100732.84;;;22.27;50.06
28428;BME280;15662;49.128;8.520;2023-09-07T06:29:24;100740.53;;;22.33;50.21
28428;BME280;15662;49.128;8.520;2023-09-07T06:31:52;100737.28;;;22.41;50.15
28428;BME280;15662;49.128;8.520;2023-09-07T06:34:21;100740.44;;;22.48;50.19
28428;BME280;15662;49.128;8.520;2023-09-07T06:36:49;100742.03;;;22.50;50.38
28428;BME280;15662;49.128;8.520;2023-09-07T06:39:20;100742.50;;;22.57;50.10
28428;BME280;15662;49.128;8.520;2023-09-07T06:41:48;100740.22;;;22.63;50.08
28428;BME280;15662;49.128;8.520;2023-09-07T06:44:18;100748.75;;;22.70;49.98
28428;BME280;15662;49.128;8.520;2023-09-07T06:46:47;100746.38;;;22.78;49.87
28428;BME280;15662;49.128;8.520;2023-09-07T06:49:15;100736.44;;;22.79;49.88
28428;BME280;15662;49.128;8.520;2023-09-07T06:51:42;100741.31;;;22.86;49.82
28428;BME280;15662;49.128;8.520;2023-09-07T06:54:10;100748.03;;;22.94;49.90
28428;BME280;15662;49.128;8.520;2023-09-07T06:56:39;100749.41;;;22.99;49.73
28428;BME280;15662;49.128;8.520;2023-09-07T06:59:07;100745.31;;;23.06;49.62
28428;BME280;15662;49.128;8.520;2023-09-07T07:01:36;100752.13;;;23.12;49.45
28428;BME280;15662;49.128;8.520;2023-09-07T07:04:05;100740.00;;;23.17;49.60
28428;BME280;15662;49.128;8.520;2023-09-07T07:06:34;100747.66;;;23.24;49.51
28428;BME280;15662;49.128;8.520;2023-09-07T07:09:02;100748.09;;;23.30;49.31
28428;BME280;15662;49.128;8.520;2023-09-07T07:11:30;100745.78;;;23.37;49.41
28428;BME280;15662;49.128;8.520;2023-09-07T07:13:58;100743.41;;;23.45;49.31
28428;BME280;15662;49.128;8.520;2023-09-07T07:16:26;100753.44;;;23.56;49.29
28428;BME280;15662;49.128;8.520;2023-09-07T07:18:54;100760.03;;;23.64;49.37
28428;BME280;15662;49.128;8.520;2023-09-07T07:21:22;100753.06;;;23.73;49.16
28428;BME280;15662;49.128;8.520;2023-09-07T07:23:51;100753.34;;;23.81;49.22
28428;BME280;15662;49.128;8.520;2023-09-07T07:26:19;100756.22;;;23.91;48.89
28428;BME280;15662;49.128;8.520;2023-09-07T07:28:47;100739.66;;;23.96;48.95
28428;BME280;15662;49.128;8.520;2023-09-07T07:31:15;100746.81;;;24.08;48.65
28428;BME280;15662;49.128;8.520;2023-09-07T07:33:47;100748.94;;;24.15;48.64
28428;BME280;15662;49.128;8.520;2023-09-07T07:36:16;100749.13;;;24.25;48.67
28428;BME280;15662;49.128;8.520;2023-09-07T07:38:44;100749.50;;;24.32;48.63
28428;BME280;15662;49.128;8.520;2023-09-07T07:41:12;100741.41;;;24.43;48.19
28428;BME280;15662;49.128;8.520;2023-09-07T07:43:40;100752.53;;;24.51;48.31
28428;BME280;15662;49.128;8.520;2023-09-07T07:46:08;100745.66;;;24.58;48.19
28428;BME280;15662;49.128;8.520;2023-09-07T07:48:37;100745.06;;;24.66;47.82
28428;BME280;15662;49.128;8.520;2023-09-07T07:51:05;100743.34;;;24.76;48.02
28428;BME280;15662;49.128;8.520;2023-09-07T07:53:39;100742.75;;;24.84;47.69
28428;BME280;15662;49.128;8.520;2023-09-07T07:56:15;100740.16;;;24.93;47.21
28428;BME280;15662;49.128;8.520;2023-09-07T07:58:45;100734.97;;;24.90;47.32
28428;BME280;15662;49.128;8.520;2023-09-07T08:01:19;100742.13;;;25.03;47.39
28428;BME280;15662;49.128;8.520;2023-09-07T08:03:51;100741.88;;;25.06;47.38
28428;BME280;15662;49.128;8.520;2023-09-07T08:06:20;100729.97;;;25.08;47.30
28428;BME280;15662;49.128;8.520;2023-09-07T08:08:48;100740.19;;;25.16;46.92
28428;BME280;15662;49.128;8.520;2023-09-07T08:11:16;100742.28;;;25.24;46.89
28428;BME280;15662;49.128;8.520;2023-09-07T08:13:44;100744.47;;;25.30;47.03
28428;BME280;15662;49.128;8.520;2023-09-07T08:16:15;100736.47;;;25.39;46.85
28428;BME280;15662;49.128;8.520;2023-09-07T08:18:43;100740.13;;;25.50;46.46
28428;BME280;15662;49.128;8.520;2023-09-07T08:21:14;100733.94;;;25.59;46.65
28428;BME280;15662;49.128;8.520;2023-09-07T08:23:43;100735.28;;;25.64;46.36
28428;BME280;15662;49.128;8.520;2023-09-07T08:26:11;100739.09;;;25.73;46.27
28428;BME280;15662;49.128;8.520;2023-09-07T08:28:41;100733.44;;;25.76;46.31
28428;BME280;15662;49.128;8.520;2023-09-07T08:31:08;100738.69;;;25.89;46.19
28428;BME280;15662;49.128;8.520;2023-09-07T08:33:38;100742.88;;;25.93;45.92
28428;BME280;15662;49.128;8.520;2023-09-07T08:36:08;100740.66;;;25.98;47.04
28428;BME280;15662;49.128;8.520;2023-09-07T08:38:36;100742.19;;;26.12;46.82
28428;BME280;15662;49.128;8.520;2023-09-07T08:41:04;100741.28;;;26.22;46.64
28428;BME280;15662;49.128;8.520;2023-09-07T08:43:39;100731.13;;;26.24;46.03
28428;BME280;15662;49.128;8.520;2023-09-07T08:46:18;100735.59;;;26.26;45.86
28428;BME280;15662;49.128;8.520;2023-09-07T08:48:49;100734.59;;;26.27;45.70
28428;BME280;15662;49.128;8.520;2023-09-07T08:51:19;100739.75;;;26.30;45.98
28428;BME280;15662;49.128;8.520;2023-09-07T08:53:47;100737.63;;;26.33;45.97
28428;BME280;15662;49.128;8.520;2023-09-07T08:56:17;100741.81;;;26.37;45.71
28428;BME280;15662;49.128;8.520;2023-09-07T08:58:47;100754.03;;;26.43;45.62
28428;BME280;15662;49.128;8.520;2023-09-07T09:01:18;100735.34;;;26.49;45.48
28428;BME280;15662;49.128;8.520;2023-09-07T09:03:46;100735.09;;;26.53;45.21
28428;BME280;15662;49.128;8.520;2023-09-07T09:06:21;100742.44;;;26.62;45.05
28428;BME280;15662;49.128;8.520;2023-09-07T09:08:58;100740.03;;;26.68;44.84
28428;BME280;15662;49.128;8.520;2023-09-07T09:11:27;100743.34;;;26.72;44.94
28428;BME280;15662;49.128;8.520;2023-09-07T09:13:57;100735.81;;;26.75;44.86
28428;BME280;15662;49.128;8.520;2023-09-07T09:16:25;100744.72;;;26.87;44.67
28428;BME280;15662;49.128;8.520;2023-09-07T09:18:57;100732.28;;;26.94;44.26
28428;BME280;15662;49.128;8.520;2023-09-07T09:21:27;100724.00;;;26.96;44.41
28428;BME280;15662;49.128;8.520;2023-09-07T09:23:57;100724.06;;;27.06;44.27
28428;BME280;15662;49.128;8.520;2023-09-07T09:26:25;100718.09;;;27.12;44.24
28428;BME280;15662;49.128;8.520;2023-09-07T09:28:57;100721.97;;;27.19;44.08
28428;BME280;15662;49.128;8.520;2023-09-07T09:31:25;100699.78;;;27.23;44.07
28428;BME280;15662;49.128;8.520;2023-09-07T09:33:53;100702.84;;;27.30;44.07
28428;BME280;15662;49.128;8.520;2023-09-07T09:36:21;100715.59;;;27.39;43.79
28428;BME280;15662;49.128;8.520;2023-09-07T09:38:51;100698.72;;;27.45;43.66
28428;BME280;15662;49.128;8.520;2023-09-07T09:41:21;100703.72;;;27.50;43.65
28428;BME280;15662;49.128;8.520;2023-09-07T09:43:50;100685.53;;;27.50;43.31
28428;BME280;15662;49.128;8.520;2023-09-07T09:46:20;100692.84;;;27.60;43.37
28428;BME280;15662;49.128;8.520;2023-09-07T09:48:49;100700.31;;;27.67;43.21
28428;BME280;15662;49.128;8.520;2023-09-07T09:51:18;100697.06;;;27.73;43.08
28428;BME280;15662;49.128;8.520;2023-09-07T09:53:47;100697.19;;;27.82;42.92
28428;BME280;15662;49.128;8.520;2023-09-07T09:56:17;100700.34;;;27.87;43.19
28428;BME280;15662;49.128;8.520;2023-09-07T09:58:45;100698.63;;;27.95;43.06
28428;BME280;15662;49.128;8.520;2023-09-07T10:01:13;100694.31;;;28.02;42.79
28428;BME280;15662;49.128;8.520;2023-09-07T10:03:47;100685.84;;;28.15;42.68
28428;BME280;15662;49.128;8.520;2023-09-07T10:06:25;100688.84;;;28.22;42.54
28428;BME280;15662;49.128;8.520;2023-09-07T10:11:36;100682.56;;;28.12;42.90
28428;BME280;15662;49.128;8.520;2023-09-07T10:14:08;100679.38;;;28.26;42.79
28428;BME280;15662;49.128;8.520;2023-09-07T10:16:52;100672.66;;;28.40;42.14
28428;BME280;15662;49.128;8.520;2023-09-07T10:19:25;100670.63;;;28.42;42.08
28428;BME280;15662;49.128;8.520;2023-09-07T10:21:55;100672.63;;;28.49;42.09
28428;BME280;15662;49.128;8.520;2023-09-07T10:24:32;100671.28;;;28.63;41.80
28428;BME280;15662;49.128;8.520;2023-09-07T10:27:08;100679.16;;;28.66;41.75
28428;BME280;15662;49.128;8.520;2023-09-07T10:29:49;100664.94;;;28.72;41.78
28428;BME280;15662;49.128;8.520;2023-09-07T10:32:23;100663.78;;;28.75;41.70
28428;BME280;15662;49.128;8.520;2023-09-07T10:34:51;100674.66;;;28.85;41.37
28428;BME280;15662;49.128;8.520;2023-09-07T10:37:19;100662.44;;;28.89;41.63
28428;BME280;15662;49.128;8.520;2023-09-07T10:39:47;100663.72;;;28.94;41.23
28428;BME280;15662;49.128;8.520;2023-09-07T10:42:24;100669.28;;;29.02;41.21
28428;BME280;15662;49.128;8.520;2023-09-07T10:44:53;100666.56;;;29.02;41.36
28428;BME280;15662;49.128;8.520;2023-09-07T10:47:21;100655.72;;;29.11;40.98
28428;BME280;15662;49.128;8.520;2023-09-07T10:49:49;100660.72;;;29.15;40.85
28428;BME280;15662;49.128;8.520;2023-09-07T10:52:17;100665.03;;;29.18;40.96
28428;BME280;15662;49.128;8.520;2023-09-07T10:54:46;100651.78;;;29.23;40.75
28428;BME280;15662;49.128;8.520;2023-09-07T10:57:22;100658.66;;;29.27;41.07
28428;BME280;15662;49.128;8.520;2023-09-07T10:59:50;100662.50;;;29.34;40.60
28428;BME280;15662;49.128;8.520;2023-09-07T11:02:22;100649.06;;;29.41;40.82
28428;BME280;15662;49.128;8.520;2023-09-07T11:04:50;100659.41;;;29.47;40.48
28428;BME280;15662;49.128;8.520;2023-09-07T11:07:18;100653.59;;;29.50;39.93
28428;BME280;15662;49.128;8.520;2023-09-07T11:09:46;100644.25;;;29.52;40.06
28428;BME280;15662;49.128;8.520;2023-09-07T11:12:21;100643.50;;;29.60;39.78
28428;BME280;15662;49.128;8.520;2023-09-07T11:14:49;100643.19;;;29.63;39.88
28428;BME280;15662;49.128;8.520;2023-09-07T11:17:18;100641.16;;;29.65;39.54
28428;BME280;15662;49.128;8.520;2023-09-07T11:19:52;100634.38;;;29.69;39.42
28428;BME280;15662;49.128;8.520;2023-09-07T11:22:21;100629.91;;;29.68;39.79
28428;BME280;15662;49.128;8.520;2023-09-07T11:24:49;100627.03;;;29.70;39.38
28428;BME280;15662;49.128;8.520;2023-09-07T11:27:18;100630.00;;;29.76;39.26
28428;BME280;15662;49.128;8.520;2023-09-07T11:29:53;100626.81;;;29.81;39.49
28428;BME280;15662;49.128;8.520;2023-09-07T11:32:21;100631.94;;;29.84;39.45
28428;BME280;15662;49.128;8.520;2023-09-07T11:34:53;100627.03;;;29.88;39.16
28428;BME280;15662;49.128;8.520;2023-09-07T11:37:26;100629.44;;;29.91;39.17
28428;BME280;15662;49.128;8.520;2023-09-07T11:39:54;100628.25;;;29.93;39.13
28428;BME280;15662;49.128;8.520;2023-09-07T11:42:22;100624.38;;;29.96;38.83
28428;BME280;15662;49.128;8.520;2023-09-07T11:44:50;100621.84;;;30.02;38.97
28428;BME280;15662;49.128;8.520;2023-09-07T11:47:18;100613.34;;;30.05;38.80
28428;BME280;15662;49.128;8.520;2023-09-07T11:49:46;100633.69;;;30.11;39.02
28428;BME280;15662;49.128;8.520;2023-09-07T11:52:14;100626.03;;;30.15;38.94
28428;BME280;15662;49.128;8.520;2023-09-07T11:54:41;100624.56;;;30.20;38.35
28428;BME280;15662;49.128;8.520;2023-09-07T11:57:09;100629.69;;;30.23;38.45
28428;BME280;15662;49.128;8.520;2023-09-07T11:59:37;100616.75;;;30.25;37.99
28428;BME280;15662;49.128;8.520;2023-09-07T12:02:24;100626.19;;;30.31;38.22
28428;BME280;15662;49.128;8.520;2023-09-07T12:04:53;100609.59;;;30.32;37.82
28428;BME280;15662;49.128;8.520;2023-09-07T12:07:22;100612.53;;;30.39;38.16
28428;BME280;15662;49.128;8.520;2023-09-07T12:09:50;100607.97;;;30.40;37.98
28428;BME280;15662;49.128;8.520;2023-09-07T12:12:18;100609.69;;;30.49;37.74
28428;BME280;15662;49.128;8.520;2023-09-07T12:14:45;100611.25;;;30.51;37.76
28428;BME280;15662;49.128;8.520;2023-09-07T12:17:13;100602.56;;;30.56;37.61
28428;BME280;15662;49.128;8.520;2023-09-07T12:19:42;100604.81;;;30.61;37.40
28428;BME280;15662;49.128;8.520;2023-09-07T12:22:13;100601.03;;;30.62;37.69
28428;BME280;15662;49.128;8.520;2023-09-07T12:24:47;100597.81;;;30.66;37.10
28428;BME280;15662;49.128;8.520;2023-09-07T12:27:25;100598.34;;;30.70;37.24
28428;BME280;15662;49.128;8.520;2023-09-07T12:29:58;100596.03;;;30.75;37.02
28428;BME280;15662;49.128;8.520;2023-09-07T12:32:26;100595.53;;;30.79;36.55
28428;BME280;15662;49.128;8.520;2023-09-07T12:34:54;100588.00;;;30.81;36.54
28428;BME280;15662;49.128;8.520;2023-09-07T12:37:21;100593.16;;;30.85;36.54
28428;BME280;15662;49.128;8.520;2023-09-07T12:39:51;100585.78;;;30.85;36.40
28428;BME280;15662;49.128;8.520;2023-09-07T12:42:19;100578.78;;;30.91;36.42
28428;BME280;15662;49.128;8.520;2023-09-07T12:44:47;100582.22;;;30.93;36.50
28428;BME280;15662;49.128;8.520;2023-09-07T12:47:14;100578.78;;;30.91;36.21
28428;BME280;15662;49.128;8.520;2023-09-07T12:49:42;100577.94;;;30.98;36.21
28428;BME280;15662;49.128;8.520;2023-09-07T12:52:10;100578.66;;;31.00;35.91
28428;BME280;15662;49.128;8.520;2023-09-07T12:54:39;100575.41;;;31.05;36.10
28428;BME280;15662;49.128;8.520;2023-09-07T12:57:07;100576.94;;;31.07;35.95
28428;BME280;15662;49.128;8.520;2023-09-07T12:59:35;100570.28;;;31.10;35.57
28428;BME280;15662;49.128;8.520;2023-09-07T13:02:02;100575.28;;;31.15;35.34